sensor_id;sensor_type;location;lat;lon;timestamp;P1;durP1;ratioP1;P2;durP2;ratioP2
18612;SDS011;9436;52.152;21.032;2022-09-09T00:00:25;8.33;;;5.60;;
18612;SDS011;9436;52.152;21.032;2022-09-09T00:02:58;8.10;;;5.70;;
18612;SDS011;9436;52.152;21.032;2022-09-09T00:05:31;8.67;;;5.80;;
18612;SDS011;9436;52.152;21.032;2022-09-09T00:08:06;9.93;;;6.20;;
18612;SDS011;9436;52.152;21.032;2022-09-09T00:10:42;9.03;;;5.73;;
18612;SDS011;9436;52.152;21.032;2022-09-09T00:13:13;8.13;;;5.93;;
18612;SDS011;9436;52.152;21.032;2022-09-09T00:15:46;7.87;;;6.10;;
18612;SDS011;9436;52.152;21.032;2022-09-09T00:18:23;10.40;;;7.03;;
18612;SDS011;9436;52.152;21.032;2022-09-09T00:20:56;11.87;;;6.80;;
18612;SDS011;9436;52.152;21.032;2022-09-09T00:23:29;9.53;;;6.43;;
18612;SDS011;9436;52.152;21.032;2022-09-09T00:26:01;10.00;;;7.17;;
18612;SDS011;9436;52.152;21.032;2022-09-09T00:28:32;8.07;;;6.70;;
18612;SDS011;9436;52.152;21.032;2022-09-09T00:31:08;10.93;;;6.77;;
18612;SDS011;9436;52.152;21.032;2022-09-09T00:33:39;10.07;;;6.20;;
18612;SDS011;9436;52.152;21.032;2022-09-09T00:36:09;9.47;;;6.57;;
18612;SDS011;9436;52.152;21.032;2022-09-09T00:38:42;11.23;;;6.83;;
18612;SDS011;9436;52.152;21.032;2022-09-09T00:41:11;10.47;;;7.10;;
18612;SDS011;9436;52.152;21.032;2022-09-09T00:43:48;8.97;;;6.77;;
18612;SDS011;9436;52.152;21.032;2022-09-09T00:46:41;7.30;;;6.43;;
18612;SDS011;9436;52.152;21.032;2022-09-09T00:49:25;9.03;;;6.70;;
18612;SDS011;9436;52.152;21.032;2022-09-09T00:52:03;8.73;;;6.90;;
18612;SDS011;9436;52.152;21.032;2022-09-09T00:54:40;9.80;;;7.13;;
18612;SDS011;9436;52.152;21.032;2022-09-09T00:57:17;11.27;;;7.73;;
18612;SDS011;9436;52.152;21.032;2022-09-09T00:59:56;9.63;;;7.53;;
18612;SDS011;9436;52.152;21.032;2022-09-09T01:02:31;10.57;;;7.30;;
18612;SDS011;9436;52.152;21.032;2022-09-09T01:05:05;12.00;;;8.03;;
18612;SDS011;9436;52.152;21.032;2022-09-09T01:07:38;9.13;;;7.30;;
18612;SDS011;9436;52.152;21.032;2022-09-09T01:10:13;10.60;;;7.40;;
18612;SDS011;9436;52.152;21.032;2022-09-09T01:12:51;9.63;;;7.67;;
18612;SDS011;9436;52.152;21.032;2022-09-09T01:15:24;10.83;;;7.87;;
18612;SDS011;9436;52.152;21.032;2022-09-09T01:17:56;11.43;;;8.00;;
18612;SDS011;9436;52.152;21.032;2022-09-09T01:20:29;8.97;;;7.67;;
18612;SDS011;9436;52.152;21.032;2022-09-09T01:23:16;11.93;;;8.30;;
18612;SDS011;9436;52.152;21.032;2022-09-09T01:26:14;11.40;;;8.00;;
18612;SDS011;9436;52.152;21.032;2022-09-09T01:28:46;11.87;;;8.30;;
18612;SDS011;9436;52.152;21.032;2022-09-09T01:31:17;12.57;;;8.70;;
18612;SDS011;9436;52.152;21.032;2022-09-09T01:33:46;12.03;;;8.90;;
18612;SDS011;9436;52.152;21.032;2022-09-09T01:36:14;11.90;;;8.40;;
18612;SDS011;9436;52.152;21.032;2022-09-09T01:38:50;11.33;;;8.37;;
18612;SDS011;9436;52.152;21.032;2022-09-09T01:41:19;9.27;;;8.10;;
18612;SDS011;9436;52.152;21.032;2022-09-09T01:43:47;9.33;;;8.33;;
18612;SDS011;9436;52.152;21.032;2022-09-09T01:46:14;11.57;;;7.80;;
18612;SDS011;9436;52.152;21.032;2022-09-09T01:48:42;9.43;;;8.23;;
18612;SDS011;9436;52.152;21.032;2022-09-09T01:51:09;9.23;;;7.87;;
18612;SDS011;9436;52.152;21.032;2022-09-09T01:53:36;10.20;;;8.40;;
18612;SDS011;9436;52.152;21.032;2022-09-09T01:56:08;10.00;;;8.00;;
18612;SDS011;9436;52.152;21.032;2022-09-09T01:58:46;9.10;;;7.63;;
18612;SDS011;9436;52.152;21.032;2022-09-09T02:01:25;10.43;;;8.17;;
18612;SDS011;9436;52.152;21.032;2022-09-09T02:04:02;9.43;;;7.87;;
18612;SDS011;9436;52.152;21.032;2022-09-09T02:06:35;10.03;;;8.13;;
18612;SDS011;9436;52.152;21.032;2022-09-09T02:09:04;10.17;;;8.57;;
18612;SDS011;9436;52.152;21.032;2022-09-09T02:11:32;10.17;;;8.27;;
18612;SDS011;9436;52.152;21.032;2022-09-09T02:14:02;10.97;;;8.27;;
18612;SDS011;9436;52.152;21.032;2022-09-09T02:16:35;11.27;;;8.43;;
18612;SDS011;9436;52.152;21.032;2022-09-09T02:19:07;12.17;;;8.57;;
18612;SDS011;9436;52.152;21.032;2022-09-09T02:21:38;12.30;;;8.77;;
18612;SDS011;9436;52.152;21.032;2022-09-09T02:24:08;10.17;;;8.83;;
18612;SDS011;9436;52.152;21.032;2022-09-09T02:26:37;10.87;;;8.77;;
18612;SDS011;9436;52.152;21.032;2022-09-09T02:29:08;10.13;;;8.53;;
18612;SDS011;9436;52.152;21.032;2022-09-09T02:31:41;12.03;;;8.73;;
18612;SDS011;9436;52.152;21.032;2022-09-09T02:34:09;11.97;;;8.90;;
18612;SDS011;9436;52.152;21.032;2022-09-09T02:36:38;12.87;;;9.87;;
18612;SDS011;9436;52.152;21.032;2022-09-09T02:39:09;11.10;;;8.87;;
18612;SDS011;9436;52.152;21.032;2022-09-09T02:41:38;10.83;;;8.97;;
18612;SDS011;9436;52.152;21.032;2022-09-09T02:44:10;12.00;;;9.30;;
18612;SDS011;9436;52.152;21.032;2022-09-09T02:46:50;12.40;;;9.03;;
18612;SDS011;9436;52.152;21.032;2022-09-09T02:49:33;11.97;;;9.37;;
18612;SDS011;9436;52.152;21.032;2022-09-09T02:52:07;11.83;;;9.10;;
18612;SDS011;9436;52.152;21.032;2022-09-09T02:54:37;11.33;;;8.60;;
18612;SDS011;9436;52.152;21.032;2022-09-09T02:57:06;10.40;;;9.30;;
18612;SDS011;9436;52.152;21.032;2022-09-09T02:59:38;10.07;;;8.93;;
18612;SDS011;9436;52.152;21.032;2022-09-09T03:02:06;9.97;;;8.77;;
18612;SDS011;9436;52.152;21.032;2022-09-09T03:04:36;10.30;;;8.70;;
18612;SDS011;9436;52.152;21.032;2022-09-09T03:07:03;12.80;;;9.27;;
18612;SDS011;9436;52.152;21.032;2022-09-09T03:09:30;10.00;;;8.33;;
18612;SDS011;9436;52.152;21.032;2022-09-09T03:11:57;11.43;;;8.97;;
18612;SDS011;9436;52.152;21.032;2022-09-09T03:14:25;10.63;;;8.73;;
18612;SDS011;9436;52.152;21.032;2022-09-09T03:16:53;11.03;;;8.50;;
18612;SDS011;9436;52.152;21.032;2022-09-09T03:19:21;9.93;;;8.57;;
18612;SDS011;9436;52.152;21.032;2022-09-09T03:21:48;10.27;;;9.20;;
18612;SDS011;9436;52.152;21.032;2022-09-09T03:24:15;9.67;;;8.40;;
18612;SDS011;9436;52.152;21.032;2022-09-09T03:26:42;11.70;;;8.63;;
18612;SDS011;9436;52.152;21.032;2022-09-09T03:29:10;10.13;;;8.40;;
18612;SDS011;9436;52.152;21.032;2022-09-09T03:31:38;10.03;;;8.53;;
18612;SDS011;9436;52.152;21.032;2022-09-09T03:34:06;9.43;;;8.17;;
18612;SDS011;9436;52.152;21.032;2022-09-09T03:36:33;10.20;;;7.53;;
18612;SDS011;9436;52.152;21.032;2022-09-09T03:39:00;8.90;;;8.00;;
18612;SDS011;9436;52.152;21.032;2022-09-09T03:41:28;9.37;;;8.03;;
18612;SDS011;9436;52.152;21.032;2022-09-09T03:43:55;8.77;;;7.87;;
18612;SDS011;9436;52.152;21.032;2022-09-09T03:46:23;8.47;;;7.50;;
18612;SDS011;9436;52.152;21.032;2022-09-09T03:48:51;9.73;;;7.77;;
18612;SDS011;9436;52.152;21.032;2022-09-09T03:51:19;8.53;;;7.63;;
18612;SDS011;9436;52.152;21.032;2022-09-09T03:53:47;9.57;;;7.87;;
18612;SDS011;9436;52.152;21.032;2022-09-09T03:56:14;8.83;;;7.80;;
18612;SDS011;9436;52.152;21.032;2022-09-09T03:58:41;9.07;;;7.70;;
18612;SDS011;9436;52.152;21.032;2022-09-09T04:01:08;9.10;;;7.90;;
18612;SDS011;9436;52.152;21.032;2022-09-09T04:03:38;12.27;;;8.43;;
18612;SDS011;9436;52.152;21.032;2022-09-09T04:06:05;8.87;;;7.93;;
18612;SDS011;9436;52.152;21.032;2022-09-09T04:08:35;9.87;;;8.23;;
18612;SDS011;9436;52.152;21.032;2022-09-09T04:11:03;8.53;;;7.43;;
18612;SDS011;9436;52.152;21.032;2022-09-09T04:13:31;8.13;;;7.33;;
18612;SDS011;9436;52.152;21.032;2022-09-09T04:15:59;7.90;;;7.10;;
18612;SDS011;9436;52.152;21.032;2022-09-09T04:18:28;8.50;;;7.57;;
18612;SDS011;9436;52.152;21.032;2022-09-09T04:20:56;8.40;;;7.57;;
18612;SDS011;9436;52.152;21.032;2022-09-09T04:23:24;8.90;;;7.10;;
18612;SDS011;9436;52.152;21.032;2022-09-09T04:25:53;8.40;;;7.47;;
18612;SDS011;9436;52.152;21.032;2022-09-09T04:28:21;8.73;;;7.57;;
18612;SDS011;9436;52.152;21.032;2022-09-09T04:30:50;7.83;;;7.03;;
18612;SDS011;9436;52.152;21.032;2022-09-09T04:33:18;8.97;;;7.27;;
18612;SDS011;9436;52.152;21.032;2022-09-09T04:35:45;9.07;;;7.33;;
18612;SDS011;9436;52.152;21.032;2022-09-09T04:38:13;7.70;;;6.90;;
18612;SDS011;9436;52.152;21.032;2022-09-09T04:40:41;7.30;;;6.50;;
18612;SDS011;9436;52.152;21.032;2022-09-09T04:43:10;7.03;;;6.33;;
18612;SDS011;9436;52.152;21.032;2022-09-09T04:45:37;8.77;;;6.77;;
18612;SDS011;9436;52.152;21.032;2022-09-09T04:48:05;7.07;;;6.37;;
18612;SDS011;9436;52.152;21.032;2022-09-09T04:50:32;7.13;;;6.43;;
18612;SDS011;9436;52.152;21.032;2022-09-09T04:52:59;7.72;;;7.00;;
18612;SDS011;9436;52.152;21.032;2022-09-09T04:55:27;7.57;;;6.80;;
18612;SDS011;9436;52.152;21.032;2022-09-09T04:57:55;7.47;;;6.23;;
18612;SDS011;9436;52.152;21.032;2022-09-09T05:00:24;6.77;;;5.83;;
18612;SDS011;9436;52.152;21.032;2022-09-09T05:02:51;6.93;;;6.13;;
18612;SDS011;9436;52.152;21.032;2022-09-09T05:05:18;6.70;;;6.00;;
18612;SDS011;9436;52.152;21.032;2022-09-09T05:07:44;6.63;;;6.03;;
18612;SDS011;9436;52.152;21.032;2022-09-09T05:10:13;7.27;;;6.17;;
18612;SDS011;9436;52.152;21.032;2022-09-09T05:12:41;6.80;;;6.00;;
18612;SDS011;9436;52.152;21.032;2022-09-09T05:15:08;6.40;;;5.80;;
18612;SDS011;9436;52.152;21.032;2022-09-09T05:17:38;6.70;;;5.40;;
18612;SDS011;9436;52.152;21.032;2022-09-09T05:20:05;6.57;;;5.87;;
18612;SDS011;9436;52.152;21.032;2022-09-09T05:22:32;6.30;;;5.67;;
18612;SDS011;9436;52.152;21.032;2022-09-09T05:24:59;6.50;;;5.80;;
18612;SDS011;9436;52.152;21.032;2022-09-09T05:27:26;6.23;;;5.70;;
18612;SDS011;9436;52.152;21.032;2022-09-09T05:29:53;6.37;;;5.10;;
18612;SDS011;9436;52.152;21.032;2022-09-09T05:32:20;6.30;;;5.70;;
18612;SDS011;9436;52.152;21.032;2022-09-09T05:34:48;6.03;;;5.43;;
18612;SDS011;9436;52.152;21.032;2022-09-09T05:37:16;6.03;;;5.43;;
18612;SDS011;9436;52.152;21.032;2022-09-09T05:39:43;5.47;;;4.97;;
18612;SDS011;9436;52.152;21.032;2022-09-09T05:42:10;7.40;;;5.70;;
18612;SDS011;9436;52.152;21.032;2022-09-09T05:44:37;5.77;;;5.17;;
18612;SDS011;9436;52.152;21.032;2022-09-09T05:47:04;6.23;;;5.67;;
18612;SDS011;9436;52.152;21.032;2022-09-09T05:49:31;5.80;;;5.20;;
18612;SDS011;9436;52.152;21.032;2022-09-09T05:51:59;7.27;;;5.20;;
18612;SDS011;9436;52.152;21.032;2022-09-09T05:54:29;6.37;;;5.43;;
18612;SDS011;9436;52.152;21.032;2022-09-09T05:56:55;6.53;;;5.83;;
18612;SDS011;9436;52.152;21.032;2022-09-09T05:59:23;7.47;;;5.93;;
18612;SDS011;9436;52.152;21.032;2022-09-09T06:01:50;6.43;;;5.33;;
18612;SDS011;9436;52.152;21.032;2022-09-09T06:04:17;6.00;;;5.40;;
18612;SDS011;9436;52.152;21.032;2022-09-09T06:06:46;6.00;;;5.30;;
18612;SDS011;9436;52.152;21.032;2022-09-09T06:09:15;6.13;;;5.53;;
18612;SDS011;9436;52.152;21.032;2022-09-09T06:11:42;6.23;;;5.50;;
18612;SDS011;9436;52.152;21.032;2022-09-09T06:14:10;6.30;;;5.70;;
18612;SDS011;9436;52.152;21.032;2022-09-09T06:16:37;7.63;;;5.83;;
18612;SDS011;9436;52.152;21.032;2022-09-09T06:19:04;6.33;;;5.73;;
18612;SDS011;9436;52.152;21.032;2022-09-09T06:21:32;5.47;;;4.97;;
18612;SDS011;9436;52.152;21.032;2022-09-09T06:24:02;6.07;;;5.50;;
18612;SDS011;9436;52.152;21.032;2022-09-09T06:26:31;6.97;;;6.27;;
18612;SDS011;9436;52.152;21.032;2022-09-09T06:28:59;7.27;;;5.97;;
18612;SDS011;9436;52.152;21.032;2022-09-09T06:31:28;8.57;;;5.70;;
18612;SDS011;9436;52.152;21.032;2022-09-09T06:33:57;6.60;;;6.00;;
18612;SDS011;9436;52.152;21.032;2022-09-09T06:36:25;6.70;;;6.10;;
18612;SDS011;9436;52.152;21.032;2022-09-09T06:38:53;6.83;;;6.00;;
18612;SDS011;9436;52.152;21.032;2022-09-09T06:41:21;7.03;;;5.83;;
18612;SDS011;9436;52.152;21.032;2022-09-09T06:43:51;7.43;;;6.20;;
18612;SDS011;9436;52.152;21.032;2022-09-09T06:46:21;7.23;;;6.63;;
18612;SDS011;9436;52.152;21.032;2022-09-09T06:48:48;7.00;;;6.30;;
18612;SDS011;9436;52.152;21.032;2022-09-09T06:51:16;8.23;;;6.43;;
18612;SDS011;9436;52.152;21.032;2022-09-09T06:53:46;8.30;;;7.30;;
18612;SDS011;9436;52.152;21.032;2022-09-09T06:56:23;7.60;;;6.80;;
18612;SDS011;9436;52.152;21.032;2022-09-09T06:58:55;7.83;;;7.03;;
18612;SDS011;9436;52.152;21.032;2022-09-09T07:01:24;7.77;;;6.97;;
18612;SDS011;9436;52.152;21.032;2022-09-09T07:03:53;8.47;;;7.50;;
18612;SDS011;9436;52.152;21.032;2022-09-09T07:06:23;10.63;;;7.27;;
18612;SDS011;9436;52.152;21.032;2022-09-09T07:08:51;10.27;;;7.63;;
18612;SDS011;9436;52.152;21.032;2022-09-09T07:11:22;8.83;;;7.93;;
18612;SDS011;9436;52.152;21.032;2022-09-09T07:13:52;9.57;;;7.80;;
18612;SDS011;9436;52.152;21.032;2022-09-09T07:16:21;9.93;;;7.83;;
18612;SDS011;9436;52.152;21.032;2022-09-09T07:18:49;8.87;;;7.97;;
18612;SDS011;9436;52.152;21.032;2022-09-09T07:21:17;9.43;;;8.20;;
18612;SDS011;9436;52.152;21.032;2022-09-09T07:23:45;8.43;;;7.53;;
18612;SDS011;9436;52.152;21.032;2022-09-09T07:26:14;9.13;;;8.23;;
18612;SDS011;9436;52.152;21.032;2022-09-09T07:28:44;9.80;;;8.40;;
18612;SDS011;9436;52.152;21.032;2022-09-09T07:31:14;9.83;;;8.83;;
18612;SDS011;9436;52.152;21.032;2022-09-09T07:33:42;9.47;;;8.57;;
18612;SDS011;9436;52.152;21.032;2022-09-09T07:36:10;9.50;;;8.60;;
18612;SDS011;9436;52.152;21.032;2022-09-09T07:38:40;9.47;;;8.53;;
18612;SDS011;9436;52.152;21.032;2022-09-09T07:41:09;12.37;;;9.20;;
18612;SDS011;9436;52.152;21.032;2022-09-09T07:43:37;10.97;;;9.67;;
18612;SDS011;9436;52.152;21.032;2022-09-09T07:46:05;10.80;;;9.70;;
18612;SDS011;9436;52.152;21.032;2022-09-09T07:48:34;11.00;;;9.40;;
18612;SDS011;9436;52.152;21.032;2022-09-09T07:51:08;10.90;;;9.80;;
18612;SDS011;9436;52.152;21.032;2022-09-09T07:53:36;9.70;;;8.73;;
18612;SDS011;9436;52.152;21.032;2022-09-09T07:56:05;10.70;;;9.60;;
18612;SDS011;9436;52.152;21.032;2022-09-09T07:58:34;10.63;;;9.53;;
18612;SDS011;9436;52.152;21.032;2022-09-09T08:01:05;10.47;;;9.37;;
18612;SDS011;9436;52.152;21.032;2022-09-09T08:03:36;12.97;;;9.80;;
18612;SDS011;9436;52.152;21.032;2022-09-09T08:06:04;10.23;;;9.23;;
18612;SDS011;9436;52.152;21.032;2022-09-09T08:08:33;10.50;;;9.50;;
18612;SDS011;9436;52.152;21.032;2022-09-09T08:11:01;11.90;;;10.20;;
18612;SDS011;9436;52.152;21.032;2022-09-09T08:13:29;11.03;;;9.90;;
18612;SDS011;9436;52.152;21.032;2022-09-09T08:16:03;11.17;;;9.90;;
18612;SDS011;9436;52.152;21.032;2022-09-09T08:18:34;24.53;;;10.20;;
18612;SDS011;9436;52.152;21.032;2022-09-09T08:21:09;12.37;;;10.33;;
18612;SDS011;9436;52.152;21.032;2022-09-09T08:23:39;11.70;;;10.53;;
18612;SDS011;9436;52.152;21.032;2022-09-09T08:26:06;10.77;;;9.67;;
18612;SDS011;9436;52.152;21.032;2022-09-09T08:28:36;12.03;;;10.07;;
18612;SDS011;9436;52.152;21.032;2022-09-09T08:31:05;14.00;;;10.97;;
18612;SDS011;9436;52.152;21.032;2022-09-09T08:33:33;14.63;;;11.40;;
18612;SDS011;9436;52.152;21.032;2022-09-09T08:36:02;14.43;;;12.40;;
18612;SDS011;9436;52.152;21.032;2022-09-09T08:38:30;14.90;;;11.57;;
18612;SDS011;9436;52.152;21.032;2022-09-09T08:40:59;13.70;;;12.30;;
18612;SDS011;9436;52.152;21.032;2022-09-09T08:43:37;13.27;;;11.73;;
18612;SDS011;9436;52.152;21.032;2022-09-09T08:46:06;13.27;;;11.87;;
18612;SDS011;9436;52.152;21.032;2022-09-09T08:48:42;14.10;;;12.70;;
18612;SDS011;9436;52.152;21.032;2022-09-09T08:51:18;13.97;;;12.47;;
18612;SDS011;9436;52.152;21.032;2022-09-09T08:53:46;14.17;;;12.67;;
18612;SDS011;9436;52.152;21.032;2022-09-09T08:56:16;15.70;;;13.60;;
18612;SDS011;9436;52.152;21.032;2022-09-09T08:58:47;14.40;;;12.60;;
18612;SDS011;9436;52.152;21.032;2022-09-09T09:01:18;13.77;;;12.27;;
18612;SDS011;9436;52.152;21.032;2022-09-09T09:03:56;14.70;;;13.10;;
18612;SDS011;9436;52.152;21.032;2022-09-09T09:06:37;16.27;;;14.30;;
18612;SDS011;9436;52.152;21.032;2022-09-09T09:09:13;14.43;;;11.90;;
18612;SDS011;9436;52.152;21.032;2022-09-09T09:11:48;16.03;;;12.37;;
18612;SDS011;9436;52.152;21.032;2022-09-09T09:14:18;13.53;;;12.07;;
18612;SDS011;9436;52.152;21.032;2022-09-09T09:16:49;18.70;;;10.63;;
18612;SDS011;9436;52.152;21.032;2022-09-09T09:19:20;14.10;;;11.00;;
18612;SDS011;9436;52.152;21.032;2022-09-09T09:21:50;14.07;;;12.47;;
18612;SDS011;9436;52.152;21.032;2022-09-09T09:24:25;15.57;;;12.53;;
18612;SDS011;9436;52.152;21.032;2022-09-09T09:26:59;15.90;;;12.50;;
18612;SDS011;9436;52.152;21.032;2022-09-09T09:29:33;15.33;;;13.13;;
18612;SDS011;9436;52.152;21.032;2022-09-09T09:32:01;14.97;;;13.37;;
18612;SDS011;9436;52.152;21.032;2022-09-09T09:34:30;17.13;;;13.67;;
18612;SDS011;9436;52.152;21.032;2022-09-09T09:36:58;15.17;;;13.57;;
18612;SDS011;9436;52.152;21.032;2022-09-09T09:39:28;18.17;;;13.60;;
18612;SDS011;9436;52.152;21.032;2022-09-09T09:41:55;15.87;;;13.20;;
18612;SDS011;9436;52.152;21.032;2022-09-09T09:44:27;15.90;;;14.17;;
18612;SDS011;9436;52.152;21.032;2022-09-09T09:47:07;16.20;;;13.97;;
18612;SDS011;9436;52.152;21.032;2022-09-09T09:49:38;17.07;;;13.60;;
18612;SDS011;9436;52.152;21.032;2022-09-09T09:52:06;16.30;;;14.00;;
18612;SDS011;9436;52.152;21.032;2022-09-09T09:54:43;18.07;;;14.07;;
18612;SDS011;9436;52.152;21.032;2022-09-09T09:57:10;17.50;;;14.30;;
18612;SDS011;9436;52.152;21.032;2022-09-09T09:59:38;17.50;;;15.57;;
18612;SDS011;9436;52.152;21.032;2022-09-09T10:02:10;18.53;;;15.00;;
18612;SDS011;9436;52.152;21.032;2022-09-09T10:04:44;17.97;;;14.53;;
18612;SDS011;9436;52.152;21.032;2022-09-09T10:07:16;19.83;;;17.03;;
18612;SDS011;9436;52.152;21.032;2022-09-09T10:09:45;21.87;;;16.10;;
18612;SDS011;9436;52.152;21.032;2022-09-09T10:12:19;20.30;;;16.47;;
18612;SDS011;9436;52.152;21.032;2022-09-09T10:14:55;18.13;;;16.13;;
18612;SDS011;9436;52.152;21.032;2022-09-09T10:17:30;18.90;;;16.33;;
18612;SDS011;9436;52.152;21.032;2022-09-09T10:20:10;18.97;;;16.20;;
18612;SDS011;9436;52.152;21.032;2022-09-09T10:22:49;19.33;;;16.43;;
18612;SDS011;9436;52.152;21.032;2022-09-09T10:25:23;21.17;;;18.47;;
18612;SDS011;9436;52.152;21.032;2022-09-09T10:28:13;20.90;;;18.57;;
18612;SDS011;9436;52.152;21.032;2022-09-09T10:30:58;23.03;;;17.47;;
18612;SDS011;9436;52.152;21.032;2022-09-09T10:33:42;21.43;;;17.10;;
18612;SDS011;9436;52.152;21.032;2022-09-09T10:36:16;19.93;;;15.20;;
18612;SDS011;9436;52.152;21.032;2022-09-09T10:38:47;19.60;;;15.97;;
18612;SDS011;9436;52.152;21.032;2022-09-09T10:41:19;24.70;;;19.07;;
18612;SDS011;9436;52.152;21.032;2022-09-09T10:46:50;22.53;;;18.73;;
18612;SDS011;9436;52.152;21.032;2022-09-09T10:49:29;23.70;;;20.57;;
18612;SDS011;9436;52.152;21.032;2022-09-09T10:52:12;25.50;;;19.03;;
18612;SDS011;9436;52.152;21.032;2022-09-09T10:54:49;23.53;;;19.67;;
18612;SDS011;9436;52.152;21.032;2022-09-09T10:57:25;21.50;;;18.37;;
18612;SDS011;9436;52.152;21.032;2022-09-09T10:59:56;21.80;;;19.17;;
18612;SDS011;9436;52.152;21.032;2022-09-09T11:02:29;23.73;;;19.40;;
18612;SDS011;9436;52.152;21.032;2022-09-09T11:04:57;22.60;;;18.10;;
18612;SDS011;9436;52.152;21.032;2022-09-09T11:07:28;22.47;;;19.57;;
18612;SDS011;9436;52.152;21.032;2022-09-09T11:10:04;26.43;;;20.57;;
18612;SDS011;9436;52.152;21.032;2022-09-09T11:12:40;26.37;;;20.40;;
18612;SDS011;9436;52.152;21.032;2022-09-09T11:15:14;26.83;;;20.10;;
18612;SDS011;9436;52.152;21.032;2022-09-09T11:17:46;28.00;;;20.87;;
18612;SDS011;9436;52.152;21.032;2022-09-09T11:20:15;26.63;;;20.37;;
18612;SDS011;9436;52.152;21.032;2022-09-09T11:22:44;25.07;;;20.63;;
18612;SDS011;9436;52.152;21.032;2022-09-09T11:25:19;26.23;;;20.53;;
18612;SDS011;9436;52.152;21.032;2022-09-09T11:27:53;27.67;;;20.63;;
18612;SDS011;9436;52.152;21.032;2022-09-09T11:30:43;29.10;;;21.40;;
18612;SDS011;9436;52.152;21.032;2022-09-09T11:33:24;28.50;;;22.17;;
18612;SDS011;9436;52.152;21.032;2022-09-09T11:36:13;28.13;;;21.40;;
18612;SDS011;9436;52.152;21.032;2022-09-09T11:38:53;28.30;;;21.83;;
18612;SDS011;9436;52.152;21.032;2022-09-09T11:41:32;32.63;;;23.87;;
18612;SDS011;9436;52.152;21.032;2022-09-09T11:44:09;29.00;;;21.83;;
18612;SDS011;9436;52.152;21.032;2022-09-09T11:46:37;31.03;;;23.00;;
18612;SDS011;9436;52.152;21.032;2022-09-09T11:49:21;28.37;;;22.03;;
18612;SDS011;9436;52.152;21.032;2022-09-09T11:51:53;31.13;;;22.40;;
18612;SDS011;9436;52.152;21.032;2022-09-09T11:54:28;33.60;;;23.80;;
18612;SDS011;9436;52.152;21.032;2022-09-09T11:56:57;32.30;;;24.27;;
18612;SDS011;9436;52.152;21.032;2022-09-09T11:59:25;31.37;;;22.77;;
18612;SDS011;9436;52.152;21.032;2022-09-09T12:01:55;31.37;;;23.07;;
18612;SDS011;9436;52.152;21.032;2022-09-09T12:04:33;30.50;;;24.00;;
18612;SDS011;9436;52.152;21.032;2022-09-09T12:07:05;35.00;;;24.57;;
18612;SDS011;9436;52.152;21.032;2022-09-09T12:09:51;34.50;;;24.60;;
18612;SDS011;9436;52.152;21.032;2022-09-09T12:12:26;31.23;;;23.50;;
18612;SDS011;9436;52.152;21.032;2022-09-09T12:14:58;31.83;;;24.40;;
18612;SDS011;9436;52.152;21.032;2022-09-09T12:17:28;34.30;;;24.63;;
18612;SDS011;9436;52.152;21.032;2022-09-09T12:20:00;35.03;;;25.40;;
18612;SDS011;9436;52.152;21.032;2022-09-09T12:22:34;34.20;;;25.10;;
18612;SDS011;9436;52.152;21.032;2022-09-09T12:25:09;36.63;;;25.57;;
18612;SDS011;9436;52.152;21.032;2022-09-09T12:27:47;34.63;;;24.97;;
18612;SDS011;9436;52.152;21.032;2022-09-09T12:30:27;36.37;;;25.53;;
18612;SDS011;9436;52.152;21.032;2022-09-09T12:33:00;35.40;;;24.43;;
18612;SDS011;9436;52.152;21.032;2022-09-09T12:35:28;34.07;;;24.07;;
18612;SDS011;9436;52.152;21.032;2022-09-09T12:37:56;34.87;;;24.30;;
18612;SDS011;9436;52.152;21.032;2022-09-09T12:40:26;33.83;;;23.83;;
18612;SDS011;9436;52.152;21.032;2022-09-09T12:42:56;35.33;;;24.90;;
18612;SDS011;9436;52.152;21.032;2022-09-09T12:45:24;34.50;;;25.57;;
18612;SDS011;9436;52.152;21.032;2022-09-09T12:47:53;35.60;;;25.73;;
18612;SDS011;9436;52.152;21.032;2022-09-09T12:50:23;35.67;;;26.87;;
18612;SDS011;9436;52.152;21.032;2022-09-09T12:52:52;36.93;;;26.10;;
18612;SDS011;9436;52.152;21.032;2022-09-09T12:55:24;36.83;;;24.90;;
18612;SDS011;9436;52.152;21.032;2022-09-09T12:57:56;33.33;;;25.73;;
18612;SDS011;9436;52.152;21.032;2022-09-09T13:00:25;33.53;;;25.47;;
18612;SDS011;9436;52.152;21.032;2022-09-09T13:02:53;31.93;;;24.40;;
18612;SDS011;9436;52.152;21.032;2022-09-09T13:05:22;31.87;;;24.83;;
18612;SDS011;9436;52.152;21.032;2022-09-09T13:07:51;35.97;;;25.07;;
18612;SDS011;9436;52.152;21.032;2022-09-09T13:10:27;40.43;;;26.67;;
18612;SDS011;9436;52.152;21.032;2022-09-09T13:12:57;35.27;;;24.70;;
18612;SDS011;9436;52.152;21.032;2022-09-09T13:15:26;34.37;;;25.60;;
18612;SDS011;9436;52.152;21.032;2022-09-09T13:17:55;40.27;;;23.43;;
18612;SDS011;9436;52.152;21.032;2022-09-09T13:20:24;38.20;;;25.43;;
18612;SDS011;9436;52.152;21.032;2022-09-09T13:22:51;36.40;;;24.40;;
18612;SDS011;9436;52.152;21.032;2022-09-09T13:25:21;31.97;;;23.50;;
18612;SDS011;9436;52.152;21.032;2022-09-09T13:27:54;29.10;;;23.03;;
18612;SDS011;9436;52.152;21.032;2022-09-09T13:30:26;34.33;;;23.17;;
18612;SDS011;9436;52.152;21.032;2022-09-09T13:33:01;31.83;;;21.57;;
18612;SDS011;9436;52.152;21.032;2022-09-09T13:35:30;32.23;;;22.80;;
18612;SDS011;9436;52.152;21.032;2022-09-09T13:37:59;34.80;;;21.80;;
18612;SDS011;9436;52.152;21.032;2022-09-09T13:40:33;31.23;;;21.77;;
18612;SDS011;9436;52.152;21.032;2022-09-09T13:43:03;27.60;;;21.37;;
18612;SDS011;9436;52.152;21.032;2022-09-09T13:45:30;29.10;;;22.30;;
18612;SDS011;9436;52.152;21.032;2022-09-09T13:47:59;29.90;;;20.70;;
18612;SDS011;9436;52.152;21.032;2022-09-09T13:50:36;27.60;;;19.70;;
18612;SDS011;9436;52.152;21.032;2022-09-09T13:53:03;32.03;;;20.73;;
18612;SDS011;9436;52.152;21.032;2022-09-09T13:55:30;30.90;;;21.30;;
18612;SDS011;9436;52.152;21.032;2022-09-09T13:57:57;29.73;;;21.10;;
18612;SDS011;9436;52.152;21.032;2022-09-09T14:00:28;30.50;;;21.20;;
18612;SDS011;9436;52.152;21.032;2022-09-09T14:02:56;29.10;;;20.40;;
18612;SDS011;9436;52.152;21.032;2022-09-09T14:05:23;29.57;;;20.87;;
18612;SDS011;9436;52.152;21.032;2022-09-09T14:07:50;33.80;;;21.50;;
18612;SDS011;9436;52.152;21.032;2022-09-09T14:10:17;34.80;;;22.47;;
18612;SDS011;9436;52.152;21.032;2022-09-09T14:12:44;29.17;;;19.60;;
18612;SDS011;9436;52.152;21.032;2022-09-09T14:15:11;29.70;;;20.03;;
18612;SDS011;9436;52.152;21.032;2022-09-09T14:17:40;32.43;;;20.07;;
18612;SDS011;9436;52.152;21.032;2022-09-09T14:20:08;28.23;;;20.53;;
18612;SDS011;9436;52.152;21.032;2022-09-09T14:22:36;33.67;;;20.33;;
18612;SDS011;9436;52.152;21.032;2022-09-09T14:25:06;28.60;;;20.77;;
18612;SDS011;9436;52.152;21.032;2022-09-09T14:27:33;30.23;;;19.53;;
18612;SDS011;9436;52.152;21.032;2022-09-09T14:30:00;29.60;;;19.60;;
18612;SDS011;9436;52.152;21.032;2022-09-09T14:32:27;30.00;;;20.67;;
18612;SDS011;9436;52.152;21.032;2022-09-09T14:34:55;32.77;;;21.03;;
18612;SDS011;9436;52.152;21.032;2022-09-09T14:37:22;32.33;;;20.70;;
18612;SDS011;9436;52.152;21.032;2022-09-09T14:39:50;31.93;;;22.53;;
18612;SDS011;9436;52.152;21.032;2022-09-09T14:42:18;30.10;;;20.83;;
18612;SDS011;9436;52.152;21.032;2022-09-09T14:44:46;30.07;;;19.67;;
18612;SDS011;9436;52.152;21.032;2022-09-09T14:47:13;31.97;;;20.70;;
18612;SDS011;9436;52.152;21.032;2022-09-09T14:49:40;31.60;;;22.13;;
18612;SDS011;9436;52.152;21.032;2022-09-09T14:52:09;30.87;;;20.83;;
18612;SDS011;9436;52.152;21.032;2022-09-09T14:54:36;36.40;;;21.67;;
18612;SDS011;9436;52.152;21.032;2022-09-09T14:57:03;31.47;;;21.13;;